Quarryville, Pennsylvania
Current Conditions -  °F | °C
As of 11:15 PM on Sunday 25 Jan 2015 (Local Time) from KMQS Reporting Station
Light Snow Light Snow  
Wind Chill: 28°   Ceiling: 1500
Heat Index: 34°   Visibility: 10mi
Dew Point: 32°   Wind: 7mph
Humidity: 93%   Direction: 60°ENE
Pressure: 29.91"   Gusts: NA
Location:  39.9°N, 76.16°W
Report Text: KMQS 260415Z AUTO 06006KT 10SM -SN FEW006 OVC015 01/00 A2991 RMK AO2
Loading
Personal Weather Stations






























Interactive Weather Map New forecast layout! Learn more

10-Day Weather Forecast

Advertisements
Track Severe Weather on mobile